Time;durP1;ratioP1;P1;durP2;ratioP2;P2;SDS_P1;SDS_P2;PMS_P1;PMS_P2;Temp;Humidity;BMP_temperature;BMP_pressure;BME280_temperature;BME280_humidity;BME280_pressure;Samples;Min_cycle;Max_cycle;Signal;HPM_P1;HPM_P2
2021/06/30 05:45:19;;;;;;;;;;;;;;;;;;;;;
2021/06/30 05:52:30;;;;;;;3.10;2.50;;;;;;;18.40;80.85;98066.33;262238;1093;22891;-73
2021/06/30 06:27:27;;;;;;;2.90;2.15;;;;;;;19.72;78.71;98073.62;261867;1093;23677;-74
2021/06/30 06:34:20;;;;;;;;;;;;;;;;;;;;;
2021/06/30 06:48:28;;;;;;;4.68;2.68;;;;;;;20.18;76.49;98082.41;261993;1093;22931;-75
2021/06/30 07:09:37;;;;;;;2.18;1.40;;;;;;;20.93;74.41;98070.04;261293;1093;22917;-75
2021/06/30 07:16:53;;;;;;;2.53;2.33;;;;;;;20.73;73.23;98061.30;261252;1093;22878;-75
2021/06/30 07:30:56;;;;;;;3.43;2.60;;;;;;;21.47;73.01;98070.50;261833;1093;22783;-74
2021/06/30 08:04:36;;;;;;;4.13;2.53;;;;;;;22.60;69.28;98057.08;262016;1091;22764;-73
2021/06/30 08:24:21;;;;;;;4.40;2.35;;;;;;;22.85;66.48;98078.20;261733;1093;22803;-73
2021/06/30 08:31:29;;;;;;;;;;;;;;;;;;;;;
2021/06/30 08:38:39;;;;;;;2.65;2.45;;;;;;;24.19;64.78;98084.36;262019;1093;23534;-73
2021/06/30 08:45:05;;;;;;;2.50;2.30;;;;;;;23.98;63.02;98087.95;262132;1092;22790;-73
2021/06/30 08:58:27;;;;;;;3.10;2.80;;;;;;;23.99;63.87;98086.78;262686;1092;22857;-72
2021/06/30 09:12:29;;;;;;;3.30;3.00;;;;;;;24.15;62.05;98089.86;262055;1092;22851;-73
2021/06/30 09:26:32;;;;;;;3.70;3.40;;;;;;;23.89;61.07;98088.37;261924;1093;22788;-74
2021/06/30 09:39:49;;;;;;;3.53;3.33;;;;;;;24.45;61.90;98096.00;262385;1093;22924;-73
2021/06/30 09:46:36;;;;;;;3.30;3.00;;;;;;;24.71;61.23;98087.29;262869;1092;27559;-72
2021/06/30 09:53:22;;;;;;;;;;;;;;;;;;;;;
2021/06/30 10:00:26;;;;;;;2.75;2.50;;;;;;;23.98;60.29;98096.16;262194;1093;22804;-72
2021/06/30 10:07:28;;;;;;;2.93;2.50;;;;;;;23.94;61.28;98093.44;262793;1093;22815;-72
2021/06/30 10:13:59;;;;;;;2.98;2.78;;;;;;;24.33;59.90;98099.95;262798;1092;25816;-72
2021/06/30 10:20:15;;;;;;;;;;;;;;;;;;;;;
2021/06/30 10:26:38;;;;;;;3.43;3.13;;;;;;;24.54;59.11;98104.55;262423;1093;22924;-73
2021/06/30 10:32:52;;;;;;;3.13;2.90;;;;;;;24.45;58.70;98101.48;262438;1092;22791;-72
2021/06/30 10:39:10;;;;;;;4.28;3.40;;;;;;;24.51;59.56;98083.45;262703;1092;22805;-72
2021/06/30 10:44:48;;;;;;;6.70;3.00;;;;;;;24.74;59.52;98072.80;261704;1095;25595;-72
2021/06/30 10:51:17;;;;;;;;;;;;;;;;;;;;;
2021/06/30 10:56:44;;;;;;;3.90;3.60;;;;;;;24.73;57.38;98084.92;262394;1092;25830;-73
2021/06/30 11:02:34;;;;;;;;;;;;;;;;;;;;;
2021/06/30 11:09:26;;;;;;;2.70;2.25;;;;;;;25.10;56.47;98083.52;262479;1093;22774;-70
2021/06/30 11:15:08;;;;;;;3.63;2.13;;;;;;;25.13;56.59;98087.41;262265;1092;25874;-72
2021/06/30 11:21:03;;;;;;;2.15;2.05;;;;;;;25.13;54.58;98100.32;262397;1091;22775;-72
2021/06/30 11:26:39;;;;;;;3.73;2.83;;;;;;;25.03;55.65;98101.95;262446;1092;22761;-74
2021/06/30 11:31:58;;;;;;;2.35;2.20;;;;;;;24.81;54.85;98095.86;262343;1092;22921;-73
2021/06/30 11:37:02;;;;;;;2.85;2.65;;;;;;;24.83;55.07;98098.95;262307;1092;23549;-73
2021/06/30 11:42:08;;;;;;;2.58;2.38;;;;;;;24.83;56.09;98109.92;262386;1093;22760;-73
2021/06/30 11:47:35;;;;;;;3.00;2.70;;;;;;;24.96;55.84;98104.74;262486;1093;25897;-73
2021/06/30 11:52:52;;;;;;;2.30;2.10;;;;;;;24.93;55.23;98093.42;262619;1092;22796;-71
2021/06/30 11:58:24;;;;;;;2.55;2.35;;;;;;;24.97;55.91;98092.61;264354;1092;22764;-70
2021/06/30 12:03:37;;;;;;;3.68;2.85;;;;;;;25.19;55.56;98088.53;262514;1093;26002;-71
2021/06/30 12:09:41;;;;;;;2.60;2.40;;;;;;;25.10;54.07;98083.52;262377;1092;22814;-72
2021/06/30 12:14:53;;;;;;;3.53;3.23;;;;;;;25.04;54.52;98082.41;262360;1093;26114;-71
2021/06/30 12:20:33;;;;;;;2.38;2.28;;;;;;;25.03;53.90;98080.03;262357;1092;22755;-72
2021/06/30 12:26:19;;;;;;;3.13;2.90;;;;;;;25.12;53.67;98077.63;262192;1093;26213;-71
2021/06/30 12:31:38;;;;;;;2.95;2.50;;;;;;;25.24;54.87;98070.90;262414;1092;22779;-71
2021/06/30 12:36:53;;;;;;;5.15;3.08;;;;;;;25.47;53.81;98069.55;267763;1091;22777;-71
2021/06/30 12:42:37;;;;;;;3.55;3.23;;;;;;;25.32;52.87;98064.17;262678;1092;22763;-71
2021/06/30 12:48:29;;;;;;;3.60;3.30;;;;;;;25.39;53.31;98074.31;262556;1092;25855;-72
2021/06/30 12:53:47;;;;;;;3.13;2.88;;;;;;;25.38;53.16;98062.58;262283;1093;22771;-72
2021/06/30 12:59:03;;;;;;;2.50;2.40;;;;;;;25.47;53.31;98059.36;262276;1092;22771;-72
2021/06/30 13:04:14;;;;;;;3.25;3.05;;;;;;;25.51;53.51;98048.38;262698;1090;22784;-72
2021/06/30 13:09:34;;;;;;;2.95;2.75;;;;;;;25.64;53.34;98034.92;262582;1093;22830;-72
2021/06/30 13:14:43;;;;;;;3.97;3.57;;;;;;;25.71;53.56;98030.13;262398;1093;25833;-72
2021/06/30 13:20:29;;;;;;;2.93;2.73;;;;;;;25.79;52.81;98020.63;262927;1090;22749;-73
2021/06/30 13:26:17;;;;;;;3.10;2.90;;;;;;;25.80;52.56;98018.69;262253;1092;22890;-70
2021/06/30 13:38:53;;;;;;;3.08;2.88;;;;;;;25.81;52.53;98016.71;262565;1092;22760;-73
2021/06/30 13:43:58;;;;;;;3.38;3.10;;;;;;;25.88;52.29;98014.67;262260;1092;23535;-72
2021/06/30 13:54:24;;;;;;;3.45;3.15;;;;;;;26.10;52.77;98023.44;264178;1093;22861;-71
2021/06/30 13:59:32;;;;;;;4.28;3.95;;;;;;;26.08;51.95;98006.61;262566;1092;22861;-72
2021/06/30 14:05:04;;;;;;;3.30;3.00;;;;;;;26.03;51.89;98014.52;262537;1092;22972;-74
2021/06/30 14:10:24;;;;;;;3.30;3.10;;;;;;;25.94;51.74;98012.26;262627;1093;22790;-72
2021/06/30 14:15:58;;;;;;;3.58;3.10;;;;;;;26.00;52.28;98021.58;262012;1092;22784;-72
2021/06/30 14:21:07;;;;;;;3.18;2.98;;;;;;;26.03;51.56;98017.27;261609;1093;25986;-73
2021/06/30 14:26:17;;;;;;;3.18;2.98;;;;;;;25.97;52.02;98025.15;261597;1093;22839;-73
2021/06/30 14:31:20;;;;;;;3.25;2.95;;;;;;;25.90;51.82;98033.47;261653;1093;22953;-72
2021/06/30 14:36:26;;;;;;;3.35;3.10;;;;;;;25.93;51.73;98032.64;261704;1093;22769;-73
2021/06/30 14:41:30;;;;;;;2.65;2.43;;;;;;;25.99;50.68;98038.45;261659;1093;22786;-73
2021/06/30 14:46:33;;;;;;;2.70;2.50;;;;;;;25.98;51.40;98043.17;261761;1093;22766;-72
2021/06/30 14:51:40;;;;;;;2.88;2.68;;;;;;;26.05;50.62;98059.58;261573;1093;22813;-73
2021/06/30 14:56:47;;;;;;;2.35;2.20;;;;;;;26.03;50.83;98056.45;261509;1093;22770;-72
2021/06/30 15:01:53;;;;;;;2.50;2.40;;;;;;;26.03;51.00;98066.66;261449;1093;22908;-73
2021/06/30 15:07:05;;;;;;;3.03;2.50;;;;;;;26.03;50.13;98058.43;261830;1093;22858;-72
2021/06/30 15:12:56;;;;;;;2.38;2.28;;;;;;;25.96;50.05;98059.25;261548;1093;22792;-72
2021/06/30 15:18:04;;;;;;;2.20;1.98;;;;;;;25.85;50.38;98047.63;261686;1093;22850;-72
2021/06/30 15:23:08;;;;;;;2.68;2.35;;;;;;;25.73;50.22;98057.94;261858;1093;22931;-72
2021/06/30 15:28:12;;;;;;;2.33;2.13;;;;;;;25.78;50.21;98045.73;261663;1093;22796;-72
2021/06/30 15:33:16;;;;;;;2.30;2.20;;;;;;;25.84;50.67;98049.59;261682;1092;22851;-72
2021/06/30 15:44:14;;;;;;;2.20;2.10;;;;;;;26.03;50.04;98048.22;261636;1093;26012;-73
2021/06/30 15:49:45;;;;;;;2.70;2.50;;;;;;;26.08;50.18;98056.01;261677;1092;24461;-73
2021/06/30 15:54:53;;;;;;;2.33;2.23;;;;;;;26.16;50.64;98053.94;261628;1092;22883;-73
2021/06/30 15:59:58;;;;;;;3.40;3.10;;;;;;;25.90;50.10;98039.72;261656;1092;22822;-72
2021/06/30 16:05:31;;;;;;;3.23;3.03;;;;;;;25.57;50.87;98035.77;261669;1093;22814;-73
2021/06/30 16:11:06;;;;;;;3.50;3.20;;;;;;;25.47;51.96;98044.88;261483;1093;22837;-72
2021/06/30 16:16:42;;;;;;;3.53;3.23;;;;;;;25.41;51.97;98047.28;261553;1093;22847;-72
2021/06/30 16:22:31;;;;;;;3.77;3.40;;;;;;;25.48;52.06;98052.70;261661;1093;22924;-73
2021/06/30 16:28:09;;;;;;;3.23;3.03;;;;;;;25.39;51.95;98064.14;261648;1092;22786;-72
2021/06/30 16:33:36;;;;;;;3.47;3.17;;;;;;;25.13;51.87;98054.53;261735;1093;22779;-73
2021/06/30 16:38:50;;;;;;;3.78;3.48;;;;;;;25.20;52.51;98057.22;261622;1092;22769;-73
2021/06/30 16:43:59;;;;;;;3.28;3.08;;;;;;;25.30;52.32;98052.83;261729;1093;22796;-72
2021/06/30 16:49:03;;;;;;;3.28;3.00;;;;;;;25.44;52.01;98055.46;261675;1093;22919;-73
2021/06/30 16:54:43;;;;;;;;;;;;;;;;;;;;;
2021/06/30 17:00:29;;;;;;;6.28;3.30;;;;;;;24.98;51.78;98050.34;261672;1092;22886;-74
2021/06/30 17:05:39;;;;;;;3.83;2.78;;;;;;;24.73;51.64;98051.29;261781;1093;26149;-71
2021/06/30 17:10:44;;;;;;;3.57;3.27;;;;;;;24.40;51.90;98054.19;261612;1093;22773;-73
2021/06/30 17:16:26;;;;;;;;;;;;;;;;;;;;;
2021/06/30 17:21:44;;;;;;;3.33;3.05;;;;;;;27.30;51.20;98059.02;261634;1093;22789;-72
2021/06/30 17:27:09;;;;;;;3.38;3.08;;;;;;;28.54;48.03;98069.28;261672;1092;22782;-73
2021/06/30 17:32:13;;;;;;;3.05;2.75;;;;;;;29.43;46.76;98073.20;261674;1093;22867;-72
2021/06/30 17:37:17;;;;;;;3.30;3.00;;;;;;;29.92;44.73;98078.64;261738;1093;22785;-73
2021/06/30 17:42:23;;;;;;;3.75;2.68;;;;;;;29.04;43.92;98091.45;261783;1092;22847;-72
2021/06/30 17:47:27;;;;;;;2.90;2.70;;;;;;;27.78;43.74;98089.27;261722;1091;22741;-73
2021/06/30 17:52:31;;;;;;;2.73;2.48;;;;;;;26.70;45.04;98094.48;261647;1092;25115;-75
2021/06/30 17:57:51;;;;;;;2.98;2.65;;;;;;;25.73;46.13;98092.80;261782;1093;22769;-73
2021/06/30 18:03:22;;;;;;;2.70;2.50;;;;;;;24.81;47.05;98088.41;261710;1093;22793;-72
2021/06/30 18:08:36;;;;;;;2.90;2.70;;;;;;;24.18;48.46;98093.77;261678;1093;22802;-73
2021/06/30 18:13:39;;;;;;;2.93;2.50;;;;;;;23.69;49.47;98096.97;261681;1093;22790;-72
2021/06/30 18:18:43;;;;;;;3.30;2.45;;;;;;;23.34;50.46;98097.78;261682;1093;22769;-72
2021/06/30 18:23:49;;;;;;;2.60;2.40;;;;;;;22.99;51.30;98105.52;261493;1093;24519;-72
2021/06/30 18:29:06;;;;;;;3.00;2.48;;;;;;;22.72;52.24;98107.78;261712;1093;22771;-72
2021/06/30 18:34:32;;;;;;;2.23;2.05;;;;;;;22.49;53.30;98122.53;261750;1093;22838;-72
2021/06/30 18:39:39;;;;;;;2.88;2.60;;;;;;;22.30;53.86;98123.61;261613;1092;22771;-72
2021/06/30 18:44:50;;;;;;;3.28;2.50;;;;;;;22.11;54.71;98119.22;261685;1093;24023;-73
2021/06/30 18:50:18;;;;;;;3.28;2.65;;;;;;;21.96;55.60;98121.07;261738;1093;22780;-72
2021/06/30 18:55:23;;;;;;;;;;;;;;;21.82;56.01;98124.48;261692;1092;22818;-74
2021/06/30 19:00:29;;;;;;;3.05;2.75;;;;;;;21.69;57.01;98125.97;261702;1093;21470;-72
2021/06/30 19:05:33;;;;;;;6.10;3.25;;;;;;;21.56;57.74;98125.49;261645;1093;22773;-73
2021/06/30 19:10:37;;;;;;;3.73;2.50;;;;;;;21.42;57.44;98130.77;261785;1093;23389;-72
2021/06/30 19:15:48;;;;;;;6.55;3.70;;;;;;;21.27;58.34;98140.78;261803;1093;25858;-73
2021/06/30 19:20:52;;;;;;;5.15;3.38;;;;;;;21.13;59.10;98152.32;261659;1092;22863;-73
2021/06/30 19:25:55;;;;;;;6.90;3.78;;;;;;;20.96;59.92;98157.20;261674;1093;22867;-72
2021/06/30 19:31:02;;;;;;;5.37;3.63;;;;;;;20.92;60.62;98155.61;261475;1092;22787;-73
2021/06/30 19:36:07;;;;;;;4.03;3.50;;;;;;;20.87;61.56;98170.31;261597;1093;22788;-73
2021/06/30 19:41:10;;;;;;;6.58;4.48;;;;;;;20.77;61.49;98170.98;261631;1092;26247;-73
2021/06/30 19:46:14;;;;;;;6.50;4.35;;;;;;;20.70;62.83;98170.91;261686;1093;26220;-73
2021/06/30 19:51:31;;;;;;;6.43;4.97;;;;;;;20.62;63.08;98165.34;261688;1090;23625;-74
2021/06/30 19:56:50;;;;;;;5.67;4.50;;;;;;;20.57;63.88;98168.39;261737;1093;25953;-73
2021/06/30 20:02:11;;;;;;;5.77;4.80;;;;;;;20.50;64.31;98165.58;261708;1092;25941;-73
2021/06/30 20:07:18;;;;;;;6.90;4.43;;;;;;;20.37;64.23;98150.63;261541;1093;25973;-73
2021/06/30 20:12:23;;;;;;;4.90;4.40;;;;;;;20.33;64.84;98167.69;261761;1093;23349;-73
2021/06/30 20:17:34;;;;;;;5.03;4.43;;;;;;;20.31;65.25;98166.48;261683;1093;24607;-72
2021/06/30 20:22:42;;;;;;;5.00;4.50;;;;;;;20.27;65.24;98166.45;261508;1093;26229;-73
2021/06/30 20:28:15;;;;;;;5.73;4.20;;;;;;;20.21;66.27;98165.19;261565;1093;26229;-72
2021/06/30 20:33:18;;;;;;;4.77;4.23;;;;;;;20.16;66.32;98166.30;261659;1093;22898;-72
2021/06/30 20:38:22;;;;;;;5.70;5.00;;;;;;;20.10;66.89;98175.91;261759;1093;22783;-73
2021/06/30 20:43:25;;;;;;;5.60;4.55;;;;;;;20.00;66.41;98166.45;261743;1091;22755;-72
2021/06/30 20:48:35;;;;;;;5.65;4.30;;;;;;;19.80;66.71;98154.13;261769;1092;22801;-73
2021/06/30 20:53:39;;;;;;;5.17;4.63;;;;;;;19.70;66.96;98160.13;261723;1093;27194;-73
2021/06/30 20:58:42;;;;;;;6.55;4.15;;;;;;;19.59;67.51;98162.70;261729;1093;22796;-72
2021/06/30 21:03:46;;;;;;;4.97;4.40;;;;;;;19.51;67.98;98158.29;261780;1093;22800;-73
2021/06/30 21:08:49;;;;;;;4.97;4.43;;;;;;;19.45;68.40;98155.09;261724;1092;22924;-73
2021/06/30 21:13:53;;;;;;;5.25;4.40;;;;;;;19.42;68.90;98163.94;261727;1093;22837;-74
2021/06/30 21:18:57;;;;;;;4.50;4.00;;;;;;;19.34;68.68;98154.13;261690;1092;25864;-73
2021/06/30 21:24:01;;;;;;;4.50;4.10;;;;;;;19.24;69.13;98148.14;261853;1093;22763;-73
2021/06/30 21:29:04;;;;;;;5.40;4.50;;;;;;;19.18;69.66;98151.51;261826;1091;25298;-73
2021/06/30 21:34:07;;;;;;;8.25;4.30;;;;;;;19.10;69.86;98162.23;261617;1093;25470;-72
2021/06/30 21:45:48;;;;;;;6.40;4.43;;;;;;;18.98;70.57;98160.48;261593;1092;22840;-73
2021/06/30 21:50:52;;;;;;;5.03;4.47;;;;;;;18.92;70.81;98172.76;261732;1092;22790;-73
2021/06/30 21:55:56;;;;;;;5.90;4.85;;;;;;;18.87;71.10;98180.38;261684;1093;22764;-73
2021/06/30 22:01:00;;;;;;;6.17;5.30;;;;;;;18.77;71.67;98163.52;261781;1093;22853;-72
2021/06/30 22:06:03;;;;;;;6.57;5.83;;;;;;;18.76;72.15;98161.97;261718;1093;22861;-75
2021/06/30 22:11:07;;;;;;;6.45;5.85;;;;;;;18.76;72.67;98163.88;261648;1093;22782;-73
2021/06/30 22:16:12;;;;;;;5.50;5.00;;;;;;;18.60;72.06;98163.96;261711;1093;22815;-73
2021/06/30 22:21:19;;;;;;;6.40;5.80;;;;;;;18.36;71.81;98165.02;261478;1091;26267;-71
2021/06/30 22:27:03;;;;;;;6.20;5.60;;;;;;;18.16;71.86;98164.19;261864;1093;22790;-73
2021/06/30 22:32:37;;;;;;;8.67;6.90;;;;;;;17.94;72.20;98167.20;261545;1093;22850;-73
2021/06/30 22:37:41;;;;;;;7.25;6.55;;;;;;;17.89;72.59;98167.45;261663;1093;26264;-73
2021/06/30 22:42:47;;;;;;;8.65;7.00;;;;;;;17.93;73.18;98154.01;261527;1092;25903;-73
2021/06/30 22:48:14;;;;;;;7.45;6.65;;;;;;;18.00;73.52;98153.39;261499;1092;27079;-71
2021/06/30 22:53:17;;;;;;;7.80;6.50;;;;;;;18.06;73.98;98146.55;261686;1093;24311;-72
2021/06/30 22:58:20;;;;;;;6.90;6.20;;;;;;;18.03;73.84;98150.74;261982;1090;22915;-73
2021/06/30 23:03:24;;;;;;;8.30;6.05;;;;;;;17.91;73.64;98138.11;262283;1090;22811;-74
2021/06/30 23:09:03;;;;;;;6.55;5.90;;;;;;;17.89;74.06;98132.23;262299;1089;25855;-72
2021/06/30 23:14:17;;;;;;;6.10;5.50;;;;;;;17.92;73.75;98118.01;262321;1090;26072;-74
2021/06/30 23:19:22;;;;;;;8.70;5.40;;;;;;;18.04;74.23;98103.55;262623;1090;26238;-73
2021/06/30 23:24:25;;;;;;;5.65;5.15;;;;;;;18.20;74.45;98110.84;262383;1090;27073;-72
2021/06/30 23:29:29;;;;;;;6.55;5.35;;;;;;;18.33;74.47;98120.42;262234;1090;22783;-75
2021/06/30 23:34:32;;;;;;;6.53;5.93;;;;;;;18.41;74.05;98119.43;262230;1089;22854;-72
2021/06/30 23:39:38;;;;;;;8.65;5.90;;;;;;;18.41;73.84;98116.72;262385;1090;22840;-72
2021/06/30 23:44:51;;;;;;;7.00;6.30;;;;;;;18.42;73.89;98112.07;262684;1090;26451;-73
2021/06/30 23:50:01;;;;;;;8.50;6.80;;;;;;;18.40;73.85;98098.88;262647;1088;22867;-73
2021/06/30 23:55:27;;;;;;;8.10;6.35;;;;;;;18.39;73.95;98102.72;262612;1089;22881;-72
